sensor_id;sensor_type;location;lat;lon;timestamp;pressure;altitude;pressure_sealevel;temperature;humidity
44131;BME280;29792;48.726;9.248;2023-01-29T00:01:02;97925.91;;;0.28;100.00
44131;BME280;29792;48.726;9.248;2023-01-29T00:03:28;97924.22;;;0.28;100.00
44131;BME280;29792;48.726;9.248;2023-01-29T00:05:53;97925.00;;;0.30;100.00
44131;BME280;29792;48.726;9.248;2023-01-29T00:08:18;97928.34;;;0.32;100.00
44131;BME280;29792;48.726;9.248;2023-01-29T00:10:44;97928.34;;;0.32;100.00
44131;BME280;29792;48.726;9.248;2023-01-29T00:13:09;97921.63;;;0.31;100.00
44131;BME280;29792;48.726;9.248;2023-01-29T00:15:34;97924.09;;;0.33;100.00
44131;BME280;29792;48.726;9.248;2023-01-29T00:17:59;97919.84;;;0.35;100.00
44131;BME280;29792;48.726;9.248;2023-01-29T00:20:25;97921.50;;;0.36;100.00
44131;BME280;29792;48.726;9.248;2023-01-29T00:22:50;97918.16;;;0.35;100.00
44131;BME280;29792;48.726;9.248;2023-01-29T00:25:15;97926.56;;;0.34;100.00
44131;BME280;29792;48.726;9.248;2023-01-29T00:27:40;97920.78;;;0.32;100.00
44131;BME280;29792;48.726;9.248;2023-01-29T00:30:06;97926.53;;;0.36;100.00
44131;BME280;29792;48.726;9.248;2023-01-29T00:32:43;97921.44;;;0.39;100.00
44131;BME280;29792;48.726;9.248;2023-01-29T00:35:09;97918.06;;;0.40;100.00
44131;BME280;29792;48.726;9.248;2023-01-29T00:37:34;97919.81;;;0.36;100.00
44131;BME280;29792;48.726;9.248;2023-01-29T00:39:59;97923.22;;;0.34;100.00
44131;BME280;29792;48.726;9.248;2023-01-29T00:42:25;97911.59;;;0.30;100.00
44131;BME280;29792;48.726;9.248;2023-01-29T00:45:10;97916.66;;;0.28;100.00
44131;BME280;29792;48.726;9.248;2023-01-29T00:47:36;97918.31;;;0.29;100.00
44131;BME280;29792;48.726;9.248;2023-01-29T00:50:05;97914.06;;;0.31;100.00
44131;BME280;29792;48.726;9.248;2023-01-29T00:52:30;97914.00;;;0.33;100.00
44131;BME280;29792;48.726;9.248;2023-01-29T00:54:58;97920.69;;;0.35;100.00
44131;BME280;29792;48.726;9.248;2023-01-29T00:57:25;97913.16;;;0.34;100.00
44131;BME280;29792;48.726;9.248;2023-01-29T00:59:51;97918.19;;;0.34;100.00
44131;BME280;29792;48.726;9.248;2023-01-29T01:02:17;97919.00;;;0.36;100.00
44131;BME280;29792;48.726;9.248;2023-01-29T01:05:01;97915.53;;;0.40;100.00
44131;BME280;29792;48.726;9.248;2023-01-29T01:07:28;97910.50;;;0.40;100.00
44131;BME280;29792;48.726;9.248;2023-01-29T01:09:53;97919.63;;;0.44;100.00
44131;BME280;29792;48.726;9.248;2023-01-29T01:12:37;97917.13;;;0.43;100.00
44131;BME280;29792;48.726;9.248;2023-01-29T01:15:02;97914.66;;;0.41;100.00
44131;BME280;29792;48.726;9.248;2023-01-29T01:17:27;97918.81;;;0.42;100.00
44131;BME280;29792;48.726;9.248;2023-01-29T01:19:53;97919.78;;;0.38;100.00
44131;BME280;29792;48.726;9.248;2023-01-29T01:22:18;97924.00;;;0.37;100.00
44131;BME280;29792;48.726;9.248;2023-01-29T01:24:43;97913.97;;;0.34;100.00
44131;BME280;29792;48.726;9.248;2023-01-29T01:27:09;97908.94;;;0.34;100.00
44131;BME280;29792;48.726;9.248;2023-01-29T01:29:34;97913.97;;;0.34;100.00
44131;BME280;29792;48.726;9.248;2023-01-29T01:31:59;97907.22;;;0.36;100.00
44131;BME280;29792;48.726;9.248;2023-01-29T01:34:25;97909.72;;;0.38;100.00
44131;BME280;29792;48.726;9.248;2023-01-29T01:36:51;97910.50;;;0.40;100.00
44131;BME280;29792;48.726;9.248;2023-01-29T01:39:17;97913.84;;;0.41;100.00
44131;BME280;29792;48.726;9.248;2023-01-29T01:41:42;97907.16;;;0.40;100.00
44131;BME280;29792;48.726;9.248;2023-01-29T01:47:11;97916.25;;;0.45;100.00
44131;BME280;29792;48.726;9.248;2023-01-29T01:49:37;97912.03;;;0.46;100.00
44131;BME280;29792;48.726;9.248;2023-01-29T01:52:03;97902.81;;;0.45;100.00
44131;BME280;29792;48.726;9.248;2023-01-29T01:54:30;97902.84;;;0.43;100.00
44131;BME280;29792;48.726;9.248;2023-01-29T01:57:00;97898.72;;;0.41;100.00
44131;BME280;29792;48.726;9.248;2023-01-29T01:59:34;97899.50;;;0.43;100.00
44131;BME280;29792;48.726;9.248;2023-01-29T02:02:01;97906.22;;;0.42;100.00
44131;BME280;29792;48.726;9.248;2023-01-29T02:04:46;97902.06;;;0.41;100.00
44131;BME280;29792;48.726;9.248;2023-01-29T02:07:31;97903.81;;;0.39;100.00
44131;BME280;29792;48.726;9.248;2023-01-29T02:10:17;97903.88;;;0.36;100.00
44131;BME280;29792;48.726;9.248;2023-01-29T02:12:43;97897.97;;;0.37;100.00
44131;BME280;29792;48.726;9.248;2023-01-29T02:15:10;97902.16;;;0.38;100.00
44131;BME280;29792;48.726;9.248;2023-01-29T02:17:35;97906.38;;;0.36;100.00
44131;BME280;29792;48.726;9.248;2023-01-29T02:20:12;97908.09;;;0.34;100.00
44131;BME280;29792;48.726;9.248;2023-01-29T02:28:29;97910.75;;;0.29;100.00
44131;BME280;29792;48.726;9.248;2023-01-29T02:33:48;97916.78;;;0.24;100.00
44131;BME280;29792;48.726;9.248;2023-01-29T02:36:18;97910.09;;;0.23;100.00
44131;BME280;29792;48.726;9.248;2023-01-29T02:38:58;97910.97;;;0.20;100.00
44131;BME280;29792;48.726;9.248;2023-01-29T02:41:29;97914.34;;;0.19;100.00
44131;BME280;29792;48.726;9.248;2023-01-29T02:44:11;97911.13;;;0.14;100.00
44131;BME280;29792;48.726;9.248;2023-01-29T02:46:45;97910.38;;;0.11;100.00
44131;BME280;29792;48.726;9.248;2023-01-29T02:49:39;97911.28;;;0.08;100.00
44131;BME280;29792;48.726;9.248;2023-01-29T02:52:18;97909.56;;;0.09;100.00
44131;BME280;29792;48.726;9.248;2023-01-29T02:54:52;97910.31;;;0.14;100.00
44131;BME280;29792;48.726;9.248;2023-01-29T02:57:22;97915.34;;;0.14;100.00
44131;BME280;29792;48.726;9.248;2023-01-29T02:59:53;97909.53;;;0.10;100.00
44131;BME280;29792;48.726;9.248;2023-01-29T03:02:37;97909.47;;;0.13;100.00
44131;BME280;29792;48.726;9.248;2023-01-29T03:05:10;97913.63;;;0.16;100.00
44131;BME280;29792;48.726;9.248;2023-01-29T03:07:42;97905.13;;;0.20;100.00
44131;BME280;29792;48.726;9.248;2023-01-29T03:10:20;97904.25;;;0.21;100.00
44131;BME280;29792;48.726;9.248;2023-01-29T03:12:52;97905.94;;;0.20;100.00
44131;BME280;29792;48.726;9.248;2023-01-29T03:15:23;97903.44;;;0.20;100.00
44131;BME280;29792;48.726;9.248;2023-01-29T03:17:54;97903.47;;;0.19;100.00
44131;BME280;29792;48.726;9.248;2023-01-29T03:20:27;97900.13;;;0.17;100.00
44131;BME280;29792;48.726;9.248;2023-01-29T03:23:03;97901.03;;;0.16;100.00
44131;BME280;29792;48.726;9.248;2023-01-29T03:25:31;97905.16;;;0.18;100.00
44131;BME280;29792;48.726;9.248;2023-01-29T03:28:19;97907.66;;;0.18;100.00
44131;BME280;29792;48.726;9.248;2023-01-29T03:31:07;97910.13;;;0.21;100.00
44131;BME280;29792;48.726;9.248;2023-01-29T03:34:08;97900.91;;;0.20;100.00
44131;BME280;29792;48.726;9.248;2023-01-29T03:36:45;97903.47;;;0.19;100.00
44131;BME280;29792;48.726;9.248;2023-01-29T03:39:15;97905.19;;;0.17;100.00
44131;BME280;29792;48.726;9.248;2023-01-29T03:41:47;97906.00;;;0.17;100.00
44131;BME280;29792;48.726;9.248;2023-01-29T03:44:29;97910.16;;;0.20;100.00
44131;BME280;29792;48.726;9.248;2023-01-29T03:47:50;97914.34;;;0.19;100.00
44131;BME280;29792;48.726;9.248;2023-01-29T03:53:03;97902.63;;;0.18;100.00
44131;BME280;29792;48.726;9.248;2023-01-29T03:58:15;97898.53;;;0.14;100.00
44131;BME280;29792;48.726;9.248;2023-01-29T04:00:54;97914.56;;;0.10;100.00
44131;BME280;29792;48.726;9.248;2023-01-29T04:03:25;97909.53;;;0.10;99.78
44131;BME280;29792;48.726;9.248;2023-01-29T04:06:03;97907.94;;;0.08;99.98
44131;BME280;29792;48.726;9.248;2023-01-29T04:08:37;97914.56;;;0.10;100.00
44131;BME280;29792;48.726;9.248;2023-01-29T04:11:10;97913.72;;;0.11;100.00
44131;BME280;29792;48.726;9.248;2023-01-29T04:13:39;97914.50;;;0.13;99.80
44131;BME280;29792;48.726;9.248;2023-01-29T04:16:07;97914.50;;;0.13;100.00
44131;BME280;29792;48.726;9.248;2023-01-29T04:18:35;97915.34;;;0.14;99.72
44131;BME280;29792;48.726;9.248;2023-01-29T04:21:01;97917.06;;;0.12;99.96
44131;BME280;29792;48.726;9.248;2023-01-29T04:23:26;97919.63;;;0.10;100.00
44131;BME280;29792;48.726;9.248;2023-01-29T04:26:08;97916.34;;;0.07;100.00
44131;BME280;29792;48.726;9.248;2023-01-29T04:28:54;97918.88;;;0.07;99.78
44131;BME280;29792;48.726;9.248;2023-01-29T04:31:27;97918.84;;;0.08;99.83
44131;BME280;29792;48.726;9.248;2023-01-29T04:34:07;97924.75;;;0.07;99.71
44131;BME280;29792;48.726;9.248;2023-01-29T04:37:01;97924.75;;;0.07;99.87
44131;BME280;29792;48.726;9.248;2023-01-29T04:39:39;97911.28;;;0.08;99.26
44131;BME280;29792;48.726;9.248;2023-01-29T04:44:40;97916.25;;;0.10;99.46
44131;BME280;29792;48.726;9.248;2023-01-29T04:47:18;97924.59;;;0.13;99.64
44131;BME280;29792;48.726;9.248;2023-01-29T04:50:00;97920.44;;;0.11;99.40
44131;BME280;29792;48.726;9.248;2023-01-29T04:52:35;97906.25;;;0.08;99.60
44131;BME280;29792;48.726;9.248;2023-01-29T04:55:14;97907.94;;;0.08;99.09
44131;BME280;29792;48.726;9.248;2023-01-29T04:58:35;97911.31;;;0.07;98.85
44131;BME280;29792;48.726;9.248;2023-01-29T05:00:53;97909.69;;;0.04;98.95
44131;BME280;29792;48.726;9.248;2023-01-29T05:03:21;97914.75;;;0.03;99.28
44131;BME280;29792;48.726;9.248;2023-01-29T05:05:49;97923.25;;;0.00;99.48
44131;BME280;29792;48.726;9.248;2023-01-29T05:08:17;97921.63;;;-0.04;99.20
44131;BME280;29792;48.726;9.248;2023-01-29T05:10:45;97920.81;;;-0.05;98.74
44131;BME280;29792;48.726;9.248;2023-01-29T05:13:13;97925.81;;;-0.03;99.46
44131;BME280;29792;48.726;9.248;2023-01-29T05:16:13;97920.81;;;-0.05;99.68
44131;BME280;29792;48.726;9.248;2023-01-29T05:18:41;97916.56;;;-0.03;99.67
44131;BME280;29792;48.726;9.248;2023-01-29T05:21:07;97925.00;;;-0.05;99.35
44131;BME280;29792;48.726;9.248;2023-01-29T05:23:33;97921.75;;;-0.09;98.99
44131;BME280;29792;48.726;9.248;2023-01-29T05:25:59;97920.09;;;-0.10;99.11
44131;BME280;29792;48.726;9.248;2023-01-29T05:28:24;97915.94;;;-0.12;99.09
44131;BME280;29792;48.726;9.248;2023-01-29T05:30:51;97916.72;;;-0.09;99.15
44131;BME280;29792;48.726;9.248;2023-01-29T05:35:50;97931.84;;;-0.09;99.45
44131;BME280;29792;48.726;9.248;2023-01-29T05:38:17;97926.00;;;-0.11;99.03
44131;BME280;29792;48.726;9.248;2023-01-29T05:40:42;97928.53;;;-0.12;98.86
44131;BME280;29792;48.726;9.248;2023-01-29T05:43:19;97919.31;;;-0.12;99.25
44131;BME280;29792;48.726;9.248;2023-01-29T05:45:59;97918.41;;;-0.09;99.68
44131;BME280;29792;48.726;9.248;2023-01-29T05:48:25;97912.50;;;-0.08;99.58
44131;BME280;29792;48.726;9.248;2023-01-29T05:50:52;97914.16;;;-0.07;99.28
44131;BME280;29792;48.726;9.248;2023-01-29T05:53:18;97924.19;;;-0.06;99.89
44131;BME280;29792;48.726;9.248;2023-01-29T05:55:46;97904.00;;;-0.04;99.70
44131;BME280;29792;48.726;9.248;2023-01-29T05:58:12;97890.56;;;-0.03;99.35
44131;BME280;29792;48.726;9.248;2023-01-29T06:00:38;97879.69;;;-0.05;99.04
44131;BME280;29792;48.726;9.248;2023-01-29T06:03:04;97878.03;;;-0.06;99.09
44131;BME280;29792;48.726;9.248;2023-01-29T06:05:29;97869.66;;;-0.07;98.78
44131;BME280;29792;48.726;9.248;2023-01-29T06:07:54;97875.56;;;-0.08;99.08
44131;BME280;29792;48.726;9.248;2023-01-29T06:10:19;97873.91;;;-0.09;99.38
44131;BME280;29792;48.726;9.248;2023-01-29T06:12:45;97882.34;;;-0.10;98.98
44131;BME280;29792;48.726;9.248;2023-01-29T06:15:11;97880.72;;;-0.12;99.17
44131;BME280;29792;48.726;9.248;2023-01-29T06:17:37;97889.91;;;-0.11;99.01
44131;BME280;29792;48.726;9.248;2023-01-29T06:20:03;97884.06;;;-0.12;99.55
44131;BME280;29792;48.726;9.248;2023-01-29T06:22:29;97889.91;;;-0.11;99.48
44131;BME280;29792;48.726;9.248;2023-01-29T06:24:54;97888.22;;;-0.11;99.17
44131;BME280;29792;48.726;9.248;2023-01-29T06:27:19;97901.69;;;-0.12;99.17
44131;BME280;29792;48.726;9.248;2023-01-29T06:29:45;97889.94;;;-0.13;99.00
44131;BME280;29792;48.726;9.248;2023-01-29T06:32:10;97904.19;;;-0.12;99.24
44131;BME280;29792;48.726;9.248;2023-01-29T06:34:35;97897.41;;;-0.08;99.49
44131;BME280;29792;48.726;9.248;2023-01-29T06:37:00;97896.53;;;-0.07;99.89
44131;BME280;29792;48.726;9.248;2023-01-29T06:39:26;97900.72;;;-0.08;99.53
44131;BME280;29792;48.726;9.248;2023-01-29T06:41:51;97894.84;;;-0.07;99.45
44131;BME280;29792;48.726;9.248;2023-01-29T06:44:16;97899.00;;;-0.06;99.48
44131;BME280;29792;48.726;9.248;2023-01-29T06:46:41;97917.44;;;-0.04;100.00
44131;BME280;29792;48.726;9.248;2023-01-29T06:49:07;97920.00;;;-0.07;99.19
44131;BME280;29792;48.726;9.248;2023-01-29T06:51:32;97918.34;;;-0.08;99.71
44131;BME280;29792;48.726;9.248;2023-01-29T06:53:57;97911.63;;;-0.07;99.60
44131;BME280;29792;48.726;9.248;2023-01-29T06:56:23;97912.47;;;-0.07;99.78
44131;BME280;29792;48.726;9.248;2023-01-29T06:58:48;97907.38;;;-0.05;99.82
44131;BME280;29792;48.726;9.248;2023-01-29T07:01:13;97916.63;;;-0.06;99.80
44131;BME280;29792;48.726;9.248;2023-01-29T07:03:39;97913.38;;;-0.09;99.41
44131;BME280;29792;48.726;9.248;2023-01-29T07:06:06;97920.97;;;-0.11;99.73
44131;BME280;29792;48.726;9.248;2023-01-29T07:08:35;97921.00;;;-0.12;99.55
44131;BME280;29792;48.726;9.248;2023-01-29T07:11:01;97927.69;;;-0.11;99.04
44131;BME280;29792;48.726;9.248;2023-01-29T07:13:27;97934.44;;;-0.13;99.07
44131;BME280;29792;48.726;9.248;2023-01-29T07:15:52;97928.66;;;-0.17;99.45
44131;BME280;29792;48.726;9.248;2023-01-29T07:18:17;97921.09;;;-0.17;99.55
44131;BME280;29792;48.726;9.248;2023-01-29T07:20:42;97925.19;;;-0.13;99.31
44131;BME280;29792;48.726;9.248;2023-01-29T07:23:11;97922.63;;;-0.10;99.95
44131;BME280;29792;48.726;9.248;2023-01-29T07:25:37;97928.41;;;-0.08;99.37
44131;BME280;29792;48.726;9.248;2023-01-29T07:28:03;97920.00;;;-0.07;99.46
44131;BME280;29792;48.726;9.248;2023-01-29T07:30:29;97923.34;;;-0.06;98.83
44131;BME280;29792;48.726;9.248;2023-01-29T07:32:54;97931.72;;;-0.04;99.33
44131;BME280;29792;48.726;9.248;2023-01-29T07:35:20;97925.81;;;-0.03;99.60
44131;BME280;29792;48.726;9.248;2023-01-29T07:37:49;97926.56;;;0.00;99.40
44131;BME280;29792;48.726;9.248;2023-01-29T07:40:14;97938.25;;;0.03;99.11
44131;BME280;29792;48.726;9.248;2023-01-29T07:42:40;97939.84;;;0.07;99.51
44131;BME280;29792;48.726;9.248;2023-01-29T07:45:08;97943.09;;;0.12;99.62
44131;BME280;29792;48.726;9.248;2023-01-29T07:47:34;97953.03;;;0.17;99.41
44131;BME280;29792;48.726;9.248;2023-01-29T07:49:59;97942.09;;;0.18;99.08
44131;BME280;29792;48.726;9.248;2023-01-29T07:52:24;97939.50;;;0.22;99.63
44131;BME280;29792;48.726;9.248;2023-01-29T07:54:50;97942.75;;;0.26;99.17
44131;BME280;29792;48.726;9.248;2023-01-29T07:57:15;97941.84;;;0.28;98.39
44131;BME280;29792;48.726;9.248;2023-01-29T07:59:40;97948.56;;;0.28;98.80
44131;BME280;29792;48.726;9.248;2023-01-29T08:02:07;97950.28;;;0.27;99.23
44131;BME280;29792;48.726;9.248;2023-01-29T08:04:32;97955.28;;;0.29;98.31
44131;BME280;29792;48.726;9.248;2023-01-29T08:06:58;97967.06;;;0.27;98.33
44131;BME280;29792;48.726;9.248;2023-01-29T08:09:23;97952.78;;;0.27;98.45
44131;BME280;29792;48.726;9.248;2023-01-29T08:11:48;97958.69;;;0.26;98.20
44131;BME280;29792;48.726;9.248;2023-01-29T08:14:14;97951.09;;;0.28;98.35
44131;BME280;29792;48.726;9.248;2023-01-29T08:16:40;97948.53;;;0.31;97.87
44131;BME280;29792;48.726;9.248;2023-01-29T08:19:08;97949.25;;;0.34;97.88
44131;BME280;29792;48.726;9.248;2023-01-29T08:21:34;97946.66;;;0.37;97.82
44131;BME280;29792;48.726;9.248;2023-01-29T08:23:59;97946.53;;;0.42;97.92
44131;BME280;29792;48.726;9.248;2023-01-29T08:26:25;97944.72;;;0.49;97.74
44131;BME280;29792;48.726;9.248;2023-01-29T08:28:51;97952.94;;;0.55;97.98
44131;BME280;29792;48.726;9.248;2023-01-29T08:31:18;97963.81;;;0.57;97.96
44131;BME280;29792;48.726;9.248;2023-01-29T08:33:47;97962.88;;;0.61;97.44
44131;BME280;29792;48.726;9.248;2023-01-29T08:36:12;97968.69;;;0.65;97.20
44131;BME280;29792;48.726;9.248;2023-01-29T08:38:38;97980.31;;;0.69;97.07
44131;BME280;29792;48.726;9.248;2023-01-29T08:41:03;97977.78;;;0.70;97.23
44131;BME280;29792;48.726;9.248;2023-01-29T08:43:29;97979.44;;;0.71;96.78
44131;BME280;29792;48.726;9.248;2023-01-29T08:45:54;97972.63;;;0.73;96.63
44131;BME280;29792;48.726;9.248;2023-01-29T08:48:19;97970.91;;;0.75;96.57
44131;BME280;29792;48.726;9.248;2023-01-29T08:50:45;97974.28;;;0.74;96.23
44131;BME280;29792;48.726;9.248;2023-01-29T08:53:10;97977.59;;;0.76;95.84
44131;BME280;29792;48.726;9.248;2023-01-29T08:55:37;97985.97;;;0.79;95.95
44131;BME280;29792;48.726;9.248;2023-01-29T08:58:03;97984.25;;;0.81;95.58
44131;BME280;29792;48.726;9.248;2023-01-29T09:00:30;97985.88;;;0.82;95.54
44131;BME280;29792;48.726;9.248;2023-01-29T09:02:55;97986.78;;;0.79;95.66
44131;BME280;29792;48.726;9.248;2023-01-29T09:05:21;97986.78;;;0.79;95.33
44131;BME280;29792;48.726;9.248;2023-01-29T09:07:46;97987.69;;;0.76;94.97
44131;BME280;29792;48.726;9.248;2023-01-29T09:10:11;97985.16;;;0.76;95.90
44131;BME280;29792;48.726;9.248;2023-01-29T09:12:37;97980.06;;;0.80;95.75
44131;BME280;29792;48.726;9.248;2023-01-29T09:15:03;97987.53;;;0.83;95.75
44131;BME280;29792;48.726;9.248;2023-01-29T09:17:28;97997.63;;;0.83;95.70
44131;BME280;29792;48.726;9.248;2023-01-29T09:19:53;97993.34;;;0.86;95.67
44131;BME280;29792;48.726;9.248;2023-01-29T09:22:19;97993.25;;;0.89;94.81
44131;BME280;29792;48.726;9.248;2023-01-29T09:24:44;97994.81;;;0.93;95.51
44131;BME280;29792;48.726;9.248;2023-01-29T09:27:09;97996.41;;;0.97;94.97
44131;BME280;29792;48.726;9.248;2023-01-29T09:29:35;97987.97;;;0.98;94.86
44131;BME280;29792;48.726;9.248;2023-01-29T09:32:00;97990.34;;;1.04;94.82
44131;BME280;29792;48.726;9.248;2023-01-29T09:34:25;97996.16;;;1.06;94.13
44131;BME280;29792;48.726;9.248;2023-01-29T09:36:51;97999.41;;;1.11;94.68
44131;BME280;29792;48.726;9.248;2023-01-29T09:39:16;97995.94;;;1.14;94.05
44131;BME280;29792;48.726;9.248;2023-01-29T09:44:18;97995.00;;;1.18;93.82
44131;BME280;29792;48.726;9.248;2023-01-29T09:46:49;97987.31;;;1.23;93.78
44131;BME280;29792;48.726;9.248;2023-01-29T09:49:23;97991.38;;;1.28;93.60
44131;BME280;29792;48.726;9.248;2023-01-29T09:51:52;97988.75;;;1.31;92.72
44131;BME280;29792;48.726;9.248;2023-01-29T09:54:48;97981.97;;;1.33;92.59
44131;BME280;29792;48.726;9.248;2023-01-29T09:57:19;97972.63;;;1.37;92.55
44131;BME280;29792;48.726;9.248;2023-01-29T09:59:47;97970.88;;;1.39;92.45
44131;BME280;29792;48.726;9.248;2023-01-29T10:02:53;97970.03;;;1.38;92.17
44131;BME280;29792;48.726;9.248;2023-01-29T10:08:19;97959.75;;;1.46;92.18
44131;BME280;29792;48.726;9.248;2023-01-29T10:10:49;97942.78;;;1.51;91.87
44131;BME280;29792;48.726;9.248;2023-01-29T10:13:28;97939.28;;;1.55;92.14
44131;BME280;29792;48.726;9.248;2023-01-29T10:16:42;97931.47;;;1.63;92.00
44131;BME280;29792;48.726;9.248;2023-01-29T10:22:17;97926.00;;;1.78;91.66
44131;BME280;29792;48.726;9.248;2023-01-29T10:24:51;97923.28;;;1.84;90.85
44131;BME280;29792;48.726;9.248;2023-01-29T10:27:18;97919.84;;;1.86;90.46
44131;BME280;29792;48.726;9.248;2023-01-29T10:29:46;97919.75;;;1.88;89.99
44131;BME280;29792;48.726;9.248;2023-01-29T10:32:15;97926.44;;;1.90;90.67
44131;BME280;29792;48.726;9.248;2023-01-29T10:34:50;97928.00;;;1.95;89.48
44131;BME280;29792;48.726;9.248;2023-01-29T10:37:21;97927.84;;;1.99;89.62
44131;BME280;29792;48.726;9.248;2023-01-29T10:39:58;97932.03;;;2.00;88.78
44131;BME280;29792;48.726;9.248;2023-01-29T10:48:43;97941.25;;;2.01;88.22
44131;BME280;29792;48.726;9.248;2023-01-29T10:51:18;97945.44;;;2.02;87.79
44131;BME280;29792;48.726;9.248;2023-01-29T10:57:08;97934.00;;;1.90;87.24
44131;BME280;29792;48.726;9.248;2023-01-29T11:02:32;97923.66;;;1.98;87.88
44131;BME280;29792;48.726;9.248;2023-01-29T11:04:57;97932.56;;;2.10;87.55
44131;BME280;29792;48.726;9.248;2023-01-29T11:07:23;97929.75;;;2.19;87.97
44131;BME280;29792;48.726;9.248;2023-01-29T11:09:55;97931.25;;;2.24;86.48
44131;BME280;29792;48.726;9.248;2023-01-29T11:12:23;97931.13;;;2.27;86.77
44131;BME280;29792;48.726;9.248;2023-01-29T11:15:29;97932.63;;;2.35;87.16
44131;BME280;29792;48.726;9.248;2023-01-29T11:18:03;97929.00;;;2.42;86.19
44131;BME280;29792;48.726;9.248;2023-01-29T11:20:30;97916.16;;;2.48;86.35
44131;BME280;29792;48.726;9.248;2023-01-29T11:22:56;97913.53;;;2.51;86.23
44131;BME280;29792;48.726;9.248;2023-01-29T11:25:22;97916.91;;;2.51;85.67
44131;BME280;29792;48.726;9.248;2023-01-29T11:27:57;97918.44;;;2.55;85.82
44131;BME280;29792;48.726;9.248;2023-01-29T11:30:29;97911.66;;;2.56;85.84
44131;BME280;29792;48.726;9.248;2023-01-29T11:35:29;97905.75;;;2.57;84.51
44131;BME280;29792;48.726;9.248;2023-01-29T11:38:16;97898.97;;;2.57;84.57
44131;BME280;29792;48.726;9.248;2023-01-29T11:40:43;97901.91;;;2.70;85.51
44131;BME280;29792;48.726;9.248;2023-01-29T11:43:12;97894.88;;;2.78;85.01
44131;BME280;29792;48.726;9.248;2023-01-29T11:45:38;97893.31;;;2.76;84.01
44131;BME280;29792;48.726;9.248;2023-01-29T11:48:04;97884.94;;;2.74;82.86
44131;BME280;29792;48.726;9.248;2023-01-29T11:50:37;97879.09;;;2.72;82.09
44131;BME280;29792;48.726;9.248;2023-01-29T11:53:02;97886.63;;;2.73;82.95
44131;BME280;29792;48.726;9.248;2023-01-29T11:55:32;97879.03;;;2.73;82.78
44131;BME280;29792;48.726;9.248;2023-01-29T11:58:13;97880.84;;;2.69;82.35
44131;BME280;29792;48.726;9.248;2023-01-29T12:00:45;97875.84;;;2.68;82.43
44131;BME280;29792;48.726;9.248;2023-01-29T12:03:15;97879.28;;;2.67;81.60
44131;BME280;29792;48.726;9.248;2023-01-29T12:05:59;97874.22;;;2.67;82.47
44131;BME280;29792;48.726;9.248;2023-01-29T12:08:32;97870.63;;;2.73;82.56
44131;BME280;29792;48.726;9.248;2023-01-29T12:13:53;97861.41;;;2.95;82.75
44131;BME280;29792;48.726;9.248;2023-01-29T12:16:25;97849.47;;;2.98;82.51
44131;BME280;29792;48.726;9.248;2023-01-29T12:18:54;97842.53;;;3.03;81.09
44131;BME280;29792;48.726;9.248;2023-01-29T12:21:45;97838.66;;;3.17;81.37
44131;BME280;29792;48.726;9.248;2023-01-29T12:24:24;97823.13;;;3.26;81.30
44131;BME280;29792;48.726;9.248;2023-01-29T12:27:16;97820.91;;;3.40;81.12
44131;BME280;29792;48.726;9.248;2023-01-29T12:35:15;97793.06;;;3.40;79.94
44131;BME280;29792;48.726;9.248;2023-01-29T12:38:00;97780.16;;;3.46;80.52
44131;BME280;29792;48.726;9.248;2023-01-29T12:40:41;97776.38;;;3.56;80.09
44131;BME280;29792;48.726;9.248;2023-01-29T12:43:13;97762.69;;;3.60;79.36
44131;BME280;29792;48.726;9.248;2023-01-29T12:45:40;97760.94;;;3.62;79.11
44131;BME280;29792;48.726;9.248;2023-01-29T12:48:10;97757.69;;;3.59;77.37
44131;BME280;29792;48.726;9.248;2023-01-29T12:50:37;97753.44;;;3.59;79.06
44131;BME280;29792;48.726;9.248;2023-01-29T12:56:25;97749.03;;;3.64;78.86
44131;BME280;29792;48.726;9.248;2023-01-29T12:58:54;97759.16;;;3.64;78.36
44131;BME280;29792;48.726;9.248;2023-01-29T13:01:30;97749.03;;;3.64;77.67
44131;BME280;29792;48.726;9.248;2023-01-29T13:04:13;97742.94;;;3.68;77.69
44131;BME280;29792;48.726;9.248;2023-01-29T13:06:46;97743.06;;;3.65;77.20
44131;BME280;29792;48.726;9.248;2023-01-29T13:09:19;97749.34;;;3.77;78.49
44131;BME280;29792;48.726;9.248;2023-01-29T13:11:59;97744.72;;;3.87;77.70
44131;BME280;29792;48.726;9.248;2023-01-29T13:14:47;97735.97;;;3.94;77.68
44131;BME280;29792;48.726;9.248;2023-01-29T13:17:22;97740.00;;;3.98;77.32
44131;BME280;29792;48.726;9.248;2023-01-29T13:19:50;97739.91;;;4.01;76.74
44131;BME280;29792;48.726;9.248;2023-01-29T13:22:28;97738.13;;;4.03;78.11
44131;BME280;29792;48.726;9.248;2023-01-29T13:24:56;97725.31;;;4.06;77.68
44131;BME280;29792;48.726;9.248;2023-01-29T13:27:24;97722.59;;;4.10;77.91
44131;BME280;29792;48.726;9.248;2023-01-29T13:29:51;97723.97;;;4.17;78.66
44131;BME280;29792;48.726;9.248;2023-01-29T13:32:23;97727.00;;;4.26;78.21
44131;BME280;29792;48.726;9.248;2023-01-29T13:34:50;97723.19;;;4.36;78.23
44131;BME280;29792;48.726;9.248;2023-01-29T13:37:35;97733.25;;;4.56;77.59
44131;BME280;29792;48.726;9.248;2023-01-29T13:40:04;97736.91;;;4.69;76.05
44131;BME280;29792;48.726;9.248;2023-01-29T13:42:42;97737.47;;;4.76;74.65
44131;BME280;29792;48.726;9.248;2023-01-29T13:45:21;97738.88;;;4.81;74.28
44131;BME280;29792;48.726;9.248;2023-01-29T13:47:49;97728.59;;;4.84;74.29
44131;BME280;29792;48.726;9.248;2023-01-29T13:50:26;97730.50;;;4.98;73.94
44131;BME280;29792;48.726;9.248;2023-01-29T13:52:58;97729.47;;;5.02;73.28
44131;BME280;29792;48.726;9.248;2023-01-29T13:55:38;97726.31;;;4.97;72.49
44131;BME280;29792;48.726;9.248;2023-01-29T13:58:05;97732.50;;;4.91;72.20
44131;BME280;29792;48.726;9.248;2023-01-29T14:10:31;97737.78;;;4.49;71.74
44131;BME280;29792;48.726;9.248;2023-01-29T14:15:30;97734.41;;;4.30;71.93
44131;BME280;29792;48.726;9.248;2023-01-29T14:20:36;97741.66;;;4.19;72.93
44131;BME280;29792;48.726;9.248;2023-01-29T14:23:03;97737.38;;;4.01;72.45
44131;BME280;29792;48.726;9.248;2023-01-29T14:25:31;97744.47;;;3.93;74.29
44131;BME280;29792;48.726;9.248;2023-01-29T14:27:59;97734.38;;;3.91;74.16
44131;BME280;29792;48.726;9.248;2023-01-29T14:30:28;97740.47;;;3.87;73.82
44131;BME280;29792;48.726;9.248;2023-01-29T14:32:54;97736.41;;;3.83;74.65
44131;BME280;29792;48.726;9.248;2023-01-29T14:35:30;97730.84;;;3.75;73.65